Latest Weather Observations for Bushy Park

IDT60901

Issued at 8:11 pm EST Tuesday 28 July 2015 (issued every 10 minutes, with the page automatically refreshed every 10 minutes)

About weather observations | Map of Hobart area stations | Latest observations for Hobart area | Other Formats
Station Details ID: 095003 Name: BUSHY PARK (BUSHY PARK ESTATES) Lat: -42.71 Lon: 146.90 Height: 27.0 m
Data from the previous 72 hours. | See also: Recent months at Bushy Park
Date/Time
EST
Tmp

°C
App
Tmp
°C
Dew
Point
°C
Rel
Hum
%
Delta-T

°C
Wind Press
QNH
hPa
Press
MSL
hPa
Rain
since
9 am
mm
Dir
 
Spd
km/h
Gust
km/h
Spd
kts
Gust
kts
28/08:00pm 9.8 7.6 6.4 79 1.6 W 7 11 4 6 - - 0.2
28/07:30pm 11.2 7.9 6.6 73 2.2 NW 13 30 7 16 - - 0.2
28/07:00pm 9.6 7.7 6.6 81 1.4 SW 6 13 3 7 - - 0.2
28/06:30pm 9.2 7.7 6.6 84 1.2 NNE 4 9 2 5 - - 0.2
28/06:00pm 9.4 7.3 6.6 83 1.3 SSE 7 11 4 6 - - 0.2
28/05:30pm 10.3 7.8 6.7 78 1.7 W 9 15 5 8 - - 0.2
28/05:00pm 11.6 7.6 6.8 72 2.3 WNW 17 26 9 14 - - 0.2
28/04:30pm 11.8 8.4 7.7 76 2.0 W 15 22 8 12 - - 0.2
28/04:00pm 12.2 8.9 8.0 75 2.1 W 15 24 8 13 - - 0.0
28/03:30pm 13.0 10.0 7.5 69 2.7 W 13 24 7 13 - - 0.0
28/03:00pm 13.1 8.6 6.9 66 3.0 W 20 32 11 17 - - 0.0
28/02:30pm 13.5 9.5 6.5 62 3.4 WNW 17 28 9 15 - - 0.0
28/02:00pm 14.4 10.8 6.9 60 3.7 WNW 15 26 8 14 - - 0.0
28/01:30pm 14.7 10.7 6.5 58 4.0 NW 17 32 9 17 - - 0.0
28/01:00pm 14.5 10.8 6.5 58 3.9 NW 15 32 8 17 - - 0.0
28/12:30pm 14.1 10.9 6.7 61 3.6 NW 13 22 7 12 - - 0.0
28/12:00pm 13.2 10.3 6.6 64 3.2 N 11 17 6 9 - - 0.0
28/11:30am 13.0 9.4 6.6 65 3.1 N 15 19 8 10 - - 0.0
28/11:00am 12.7 8.6 6.2 64 3.1 N 17 24 9 13 - - 0.0
28/10:30am 11.8 7.6 5.6 66 2.9 NNW 17 28 9 15 - - 0.0
28/10:00am 11.1 8.2 6.5 73 2.2 NNW 11 19 6 10 - - 0.0
28/09:30am 10.1 7.1 5.8 74 2.0 NNW 11 15 6 8 - - 0.0
28/09:00am 9.0 5.8 5.3 77 1.7 WNW 11 15 6 8 - - 0.0
28/08:30am 8.6 4.3 5.1 79 1.6 NNW 17 24 9 13 - - 0.0
28/08:00am 8.4 4.1 5.1 80 1.5 N 17 24 9 13 - - 0.0
28/07:30am 8.1 3.1 4.7 79 1.5 N 20 28 11 15 - - 0.0
28/07:00am 8.2 3.8 4.8 79 1.5 N 17 24 9 13 - - 0.0
28/06:30am 7.2 3.5 4.7 84 1.1 NE 13 19 7 10 - - 0.0
28/06:00am 5.9 2.5 4.0 88 0.8 SW 11 13 6 7 - - 0.0
28/05:30am 6.3 3.9 4.5 88 0.8 ESE 6 9 3 5 - - 0.0
28/05:00am 7.1 3.8 4.6 84 1.1 W 11 17 6 9 - - 0.0
28/04:30am 7.6 4.7 4.9 83 1.2 W 9 13 5 7 - - 0.0
28/04:00am 8.7 4.7 4.9 77 1.7 NW 15 20 8 11 - - 0.0
28/03:30am 9.0 4.9 4.5 73 2.0 WNW 15 22 8 12 - - 0.0
28/03:00am 8.9 3.9 3.6 69 2.3 WNW 19 28 10 15 - - 0.0
28/02:30am 9.4 4.7 3.2 65 2.7 W 17 28 9 15 - - 0.0
28/02:00am 7.7 2.3 2.7 70 2.1 NNW 20 24 11 13 - - 0.0
28/01:30am 8.6 3.9 3.3 69 2.3 WNW 17 26 9 14 - - 0.0
28/01:00am 4.6 1.5 3.4 92 0.5 W 9 15 5 8 - - 0.0
28/12:30am 5.9 3.5 4.5 91 0.6 NE 6 9 3 5 - - 0.0
28/12:00am 6.4 3.6 5.3 93 0.5 N 9 13 5 7 - - 0.0
 
Date/Time
EST
Tmp

°C
App
Tmp
°C
Dew
Point
°C
Rel
Hum
%
Delta-T

°C
Wind Press
QNH
hPa
Press
MSL
hPa
Rain
since
9 am
mm
Dir
 
Spd
km/h
Gust
km/h
Spd
kts
Gust
kts
27/11:30pm 6.9 4.1 5.3 89 0.7 W 9 19 5 10 - - 0.0
27/11:00pm 7.2 6.2 5.4 88 0.8 CALM 0 0 0 0 - - 0.0
27/10:30pm 7.2 5.8 5.4 88 0.8 W 2 9 1 5 - - 0.0
27/10:00pm 7.8 5.0 5.1 83 1.2 NNW 9 13 5 7 - - 0.0
27/09:30pm 7.6 4.7 4.7 82 1.3 NNW 9 13 5 7 - - 0.0
27/09:00pm 7.8 5.4 5.1 83 1.2 NW 7 15 4 8 - - 0.0
27/08:30pm 7.4 4.4 4.2 80 1.4 NNW 9 15 5 8 - - 0.0
27/08:00pm 7.6 5.2 4.4 80 1.4 SE 6 11 3 6 - - 0.0
27/07:30pm 8.7 5.0 4.4 74 1.9 NW 13 20 7 11 - - 0.0
27/07:00pm 8.9 5.9 4.2 72 2.1 WSW 9 13 5 7 - - 0.0
27/06:30pm 8.5 6.0 3.9 73 2.0 N 6 11 3 6 - - 0.0
27/06:00pm 8.6 5.9 3.8 72 2.1 ENE 7 11 4 6 - - 0.0
27/05:30pm 9.7 6.9 3.3 64 2.8 N 7 24 4 13 - - 0.0
27/05:00pm 9.6 7.2 4.2 69 2.4 SSW 6 9 3 5 - - 0.0
27/04:30pm 10.3 7.3 4.0 65 2.8 NW 9 15 5 8 - - 0.0
27/04:00pm 10.5 7.6 4.5 66 2.7 WNW 9 15 5 8 - - 0.0
27/03:30pm 10.6 7.6 3.9 63 3.0 NW 9 17 5 9 - - 0.0
27/03:00pm 10.8 7.3 3.6 61 3.2 NNE 11 20 6 11 - - 0.0
27/02:30pm 10.5 7.8 3.8 63 3.0 N 7 9 4 5 - - 0.0
27/02:00pm 10.5 5.8 3.0 60 3.2 WSW 17 28 9 15 - - 0.0
27/01:30pm 10.5 5.4 4.0 64 2.9 SW 20 35 11 19 - - 0.0
27/01:00pm 11.5 7.3 3.7 58 3.5 W 15 32 8 17 - - 0.0
27/12:30pm 10.2 7.5 3.9 65 2.8 NNW 7 15 4 8 - - 0.0
27/12:00pm 9.7 4.3 4.3 69 2.4 N 22 28 12 15 - - 0.0
27/11:30am 9.9 4.7 3.8 66 2.7 N 20 26 11 14 - - 0.0
27/11:00am 9.3 4.2 3.3 66 2.6 N 19 26 10 14 - - 0.0
27/10:30am 7.8 3.1 3.1 72 2.0 N 17 28 9 15 - - 0.0
27/10:00am 6.8 3.2 2.8 75 1.7 NW 11 19 6 10 - - 0.0
27/09:30am 5.9 1.9 2.8 80 1.3 NW 13 17 7 9 - - 0.0
27/09:00am 5.5 1.1 2.9 83 1.1 WNW 15 20 8 11 - - 4.4
27/08:30am 4.9 1.3 2.7 86 0.9 NW 11 15 6 8 - - 4.2
27/08:00am 4.3 1.3 1.8 84 1.0 NNW 7 11 4 6 - - 4.2
27/07:30am 5.5 1.3 1.5 75 1.6 WSW 13 26 7 14 - - 4.2
27/07:00am 5.6 1.2 0.5 70 2.0 NW 13 20 7 11 - - 4.0
27/06:30am 5.4 1.7 0.0 68 2.1 NNW 9 20 5 11 - - 4.0
27/06:00am 5.0 0.6 0.4 72 1.8 N 13 19 7 10 - - 4.0
27/05:30am 5.2 0.8 0.3 70 1.9 W 13 26 7 14 - - 4.0
27/05:00am 5.2 0.7 0.0 69 2.0 W 13 32 7 17 - - 4.0
27/04:30am 5.1 -0.1 -0.1 69 2.0 WSW 17 35 9 19 - - 4.0
27/04:00am 4.6 0.2 0.2 73 1.7 SW 13 24 7 13 - - 4.0
27/03:30am 5.5 1.4 -0.2 67 2.2 SW 11 26 6 14 - - 4.0
27/03:00am 4.8 0.8 0.4 73 1.7 NW 11 17 6 9 - - 4.0
27/02:30am 5.3 0.9 0.1 69 2.0 NNW 13 22 7 12 - - 4.0
27/02:00am 5.6 1.8 -0.4 65 2.3 N 9 19 5 10 - - 4.0
27/01:30am 5.9 2.0 -1.3 60 2.7 NE 9 19 5 10 - - 4.0
27/01:00am 5.5 1.4 -0.5 65 2.3 S 11 22 6 12 - - 4.0
27/12:30am 5.8 1.0 0.2 67 2.2 NNW 15 26 8 14 - - 4.0
27/12:00am 5.8 1.1 0.7 70 2.0 N 15 24 8 13 - - 4.0
 
Date/Time
EST
Tmp

°C
App
Tmp
°C
Dew
Point
°C
Rel
Hum
%
Delta-T

°C
Wind Press
QNH
hPa
Press
MSL
hPa
Rain
since
9 am
mm
Dir
 
Spd
km/h
Gust
km/h
Spd
kts
Gust
kts
26/11:30pm 5.7 0.6 0.6 70 2.0 N 17 30 9 16 - - 4.0
26/11:00pm 6.1 1.8 0.8 69 2.1 ENE 13 19 7 10 - - 4.0
26/10:30pm 6.4 2.3 -0.3 62 2.6 W 11 20 6 11 - - 4.0
26/10:00pm 6.0 1.8 1.8 74 1.7 W 13 26 7 14 - - 4.0
26/09:30pm 6.2 0.4 2.3 76 1.6 WSW 22 39 12 21 - - 4.0
26/09:00pm 6.7 0.5 2.1 72 1.9 WSW 24 37 13 20 - - 3.6
26/08:30pm 6.6 1.3 2.8 77 1.6 WSW 20 37 11 20 - - 3.4
26/08:00pm 7.0 -0.2 3.0 76 1.7 WSW 30 48 16 26 - - 3.0
26/07:30pm 6.6 2.7 3.3 79 1.4 W 13 32 7 17 - - 3.0
26/07:00pm 6.2 3.2 4.1 86 0.9 NW 9 13 5 7 - - 2.6
26/06:30pm 6.2 1.3 3.9 85 1.0 N 19 26 10 14 - - 2.4
26/06:00pm 6.4 0.9 3.8 83 1.1 N 22 28 12 15 - - 1.8
26/05:30pm 6.4 1.7 3.3 80 1.3 N 17 28 9 15 - - 1.4
26/05:00pm 7.1 1.8 2.8 74 1.8 N 20 28 11 15 - - 1.4
26/04:30pm 7.6 3.7 3.2 74 1.9 W 13 30 7 16 - - 1.4
26/04:00pm 8.5 4.5 2.6 66 2.5 NNW 13 17 7 9 - - 1.2
26/03:30pm 9.2 4.0 2.4 62 2.9 NNW 19 30 10 16 - - 1.2
26/03:00pm 9.6 3.1 2.4 61 3.0 N 26 37 14 20 - - 1.2
26/02:30pm 8.3 2.9 2.4 66 2.5 N 20 32 11 17 - - 1.2
26/02:00pm 8.4 4.0 2.8 68 2.4 NW 15 35 8 19 - - 1.0
26/01:30pm 7.5 1.4 2.5 70 2.1 N 24 41 13 22 - - 1.0
26/01:00pm 8.5 -1.1 3.2 69 2.3 N 43 61 23 33 - - 1.0
26/12:30pm 7.9 -3.6 2.2 67 2.4 N 52 72 28 39 - - 0.8
26/12:29pm 8.1 -3.4 2.4 67 2.4 N 52 72 28 39 - - 0.6
26/12:00pm 7.9 -0.2 3.0 71 2.1 N 35 54 19 29 - - 0.6
26/11:39am 8.2 -2.5 2.5 67 2.4 N 48 69 26 37 - - 0.6
26/11:30am 8.3 -2.4 2.7 68 2.4 N 48 65 26 35 - - 0.6
26/11:04am 8.4 -2.0 2.2 65 2.6 N 46 69 25 37 - - 0.4
26/11:00am 8.5 -1.3 2.1 64 2.7 N 43 59 23 32 - - 0.4
26/10:30am 7.8 -2.2 2.3 68 2.3 N 44 63 24 34 - - 0.4
26/10:00am 6.9 -1.5 1.8 70 2.1 NNW 35 61 19 33 - - 0.4
26/09:52am 7.1 -1.7 1.5 67 2.3 NNW 37 56 20 30 - - 0.2
26/09:30am 7.1 2.0 0.9 65 2.5 N 17 39 9 21 - - 0.2
26/09:00am 7.4 -1.0 1.8 67 2.3 N 35 54 19 29 - - 2.6
26/08:46am 7.5 -0.4 1.1 64 2.6 N 32 48 17 26 - - 2.6
26/08:30am 6.6 1.2 1.1 68 2.2 N 19 28 10 15 - - 2.6
26/08:00am 6.0 0.4 1.3 72 1.9 N 20 37 11 20 - - 2.6
26/07:30am 6.5 1.2 1.6 71 2.0 NNW 19 37 10 20 - - 2.6
26/07:00am 7.1 2.1 1.2 66 2.4 NW 17 26 9 14 - - 2.6
26/06:30am 6.4 0.8 1.5 71 2.0 NNW 20 30 11 16 - - 2.4
26/06:02am 6.3 -1.7 1.6 72 1.9 N 33 54 18 29 - - 2.4
26/06:00am 6.2 -2.2 1.8 73 1.8 N 35 46 19 25 - - 2.4
26/05:30am 5.9 -1.0 2.5 79 1.4 N 28 39 15 21 - - 2.4
26/05:01am 6.1 -1.6 2.5 78 1.5 N 32 50 17 27 - - 2.4
26/05:00am 6.2 -1.7 2.3 76 1.6 N 33 50 18 27 - - 2.4
26/04:55am 6.2 -1.5 2.3 76 1.6 N 32 50 17 27 - - 2.4
26/04:30am 6.4 -1.2 2.6 77 1.6 N 32 46 17 25 - - 2.0
26/04:09am 6.4 -1.5 1.2 69 2.1 N 32 50 17 27 - - 1.8
26/04:00am 6.1 -2.7 1.4 72 1.9 N 37 50 20 27 - - 1.8
26/03:30am 5.2 0.4 2.8 84 1.0 N 17 32 9 17 - - 1.8
26/03:00am 3.6 -1.8 2.6 93 0.4 N 20 26 11 14 - - 1.8
26/02:30am 3.1 -1.3 2.6 96 0.2 N 15 24 8 13 - - 1.8
26/02:00am 3.8 -0.2 3.1 95 0.3 N 13 20 7 11 - - 1.8
26/01:30am 5.0 2.0 4.3 95 0.3 N 9 13 5 7 - - 1.8
26/01:00am 5.7 4.2 5.0 95 0.3 ENE 2 11 1 6 - - 1.8
26/12:30am 5.9 3.1 5.2 95 0.3 NNW 9 11 5 6 - - 1.8
26/12:00am 5.5 1.4 4.3 92 0.5 N 15 20 8 11 - - 1.8
 
Date/Time
EST
Tmp

°C
App
Tmp
°C
Dew
Point
°C
Rel
Hum
%
Delta-T

°C
Wind Press
QNH
hPa
Press
MSL
hPa
Rain
since
9 am
mm
Dir
 
Spd
km/h
Gust
km/h
Spd
kts
Gust
kts
25/11:30pm 4.8 0.6 3.6 92 0.5 NNW 15 28 8 15 - - 1.4
25/11:00pm 3.8 2.2 2.6 92 0.5 CALM 0 4 0 2 - - 0.0
25/10:30pm 3.6 0.8 2.1 90 0.6 ENE 6 9 3 5 - - 0.0
25/10:00pm 3.3 -0.1 2.0 91 0.5 S 9 13 5 7 - - 0.0
25/09:30pm 3.3 0.3 2.0 91 0.5 SW 7 9 4 5 - - 0.0
25/09:00pm 3.1 0.1 1.8 91 0.5 NW 7 11 4 6 - - 0.0
25/08:30pm 3.2 0.2 1.7 90 0.6 N 7 13 4 7 - - 0.0

Latest Capital City Observations: Canberra | Sydney | Melbourne | Brisbane | Adelaide | Perth | Hobart | Darwin

Other Formats:

Comma delimited format used in spreadsheet applications
http://www.bom.gov.au/fwo/IDT60901/IDT60901.94964.axf

JavaScript Object Notation format (JSON) in row-major order
http://www.bom.gov.au/fwo/IDT60901/IDT60901.94964.json